Time;durP1;ratioP1;P1;durP2;ratioP2;P2;SDS_P1;SDS_P2;PMS_P1;PMS_P2;Temp;Humidity;BMP_temperature;BMP_pressure;BME280_temperature;BME280_humidity;BME280_pressure;Samples;Min_cycle;Max_cycle;Signal;HPM_P1;HPM_P2
2021/01/11 00:01:06;;;;;;;;;;;;;;;3.56;65.41;100753.43;118517;1150;104462;-75
2021/01/11 00:03:32;;;;;;;;;;;;;;;3.54;65.56;100761.44;118634;1149;104553;-76
2021/01/11 00:05:57;;;;;;;;;;;;;;;3.55;65.49;100752.59;118530;1150;104783;-75
2021/01/11 00:08:23;;;;;;;;;;;;;;;3.56;65.56;100753.43;118552;1150;105055;-75
2021/01/11 00:10:50;;;;;;;;;;;;;;;3.57;65.51;100749.86;118577;1149;104487;-75
2021/01/11 00:13:15;;;;;;;534.50;131.10;;;;;;;3.54;66.63;100749.12;118618;1149;105052;-75
2021/01/11 00:15:41;;;;;;;585.30;175.45;;;;;;;3.56;66.34;100748.16;118568;1150;104496;-75
2021/01/11 00:18:06;;;;;;;;;;;;;;;3.57;65.53;100749.86;118586;1150;104559;-75
2021/01/11 00:20:32;;;;;;;;;;;;;;;3.58;66.38;100754.18;118578;1150;105113;-75
2021/01/11 00:22:57;;;;;;;586.40;181.50;;;;;;;3.58;66.22;100755.05;118623;1149;104818;-75
2021/01/11 00:25:23;;;;;;;591.50;181.30;;;;;;;3.60;65.63;100753.16;118543;1149;105037;-75
2021/01/11 00:27:49;;;;;;;595.80;187.70;;;;;;;3.59;65.82;100750.61;118539;1150;105135;-75
2021/01/11 00:30:16;;;;;;;549.23;137.25;;;;;;;3.56;65.55;100750.80;118618;1149;104502;-78
2021/01/11 00:32:41;;;;;;;;;;;;;;;3.58;66.33;100751.55;118534;1149;105053;-78
2021/01/11 00:35:08;;;;;;;597.25;185.95;;;;;;;3.59;66.35;100753.25;118547;1149;105124;-78
2021/01/11 00:37:34;;;;;;;;;;;;;;;3.65;66.46;100758.14;118619;1150;104486;-73
2021/01/11 00:39:59;;;;;;;;;;;;;;;3.68;66.26;100763.23;118514;1151;104679;-73
2021/01/11 00:42:25;;;;;;;;;;;;;;;3.67;66.62;100756.25;118524;1149;104501;-75
2021/01/11 00:44:51;;;;;;;592.25;182.65;;;;;;;3.68;66.09;100763.23;118569;1149;105015;-74
2021/01/11 00:47:17;;;;;;;554.70;142.47;;;;;;;3.68;66.32;100763.23;118513;1150;104747;-74
2021/01/11 00:49:43;;;;;;;592.60;180.00;;;;;;;3.68;65.46;100763.23;118638;1149;104909;-75
2021/01/11 00:52:09;;;;;;;592.20;181.20;;;;;;;3.70;65.80;100770.11;118643;1150;105092;-75
2021/01/11 00:54:35;;;;;;;589.60;181.00;;;;;;;3.72;66.59;100767.38;118480;1150;104458;-78
2021/01/11 00:57:03;;;;;;;590.60;177.00;;;;;;;3.75;66.30;100777.72;118528;1149;104548;-75
2021/01/11 00:59:55;;;;;;;593.70;178.30;;;;;;;3.73;65.87;100774.33;118591;1150;104484;-76
2021/01/11 01:02:25;;;;;;;;;;;;;;;3.74;65.51;100774.25;118565;1149;105104;-77
2021/01/11 01:04:50;;;;;;;551.57;138.37;;;;;;;3.72;65.60;100773.50;118558;1150;104474;-73
2021/01/11 01:07:16;;;;;;;;;;;;;;;3.70;65.37;100770.11;118617;1149;104665;-74
2021/01/11 01:09:41;;;;;;;;;;;;;;;3.70;66.34;100771.91;118559;1149;104491;-75
2021/01/11 01:12:07;;;;;;;;;;;;;;;3.73;65.94;100782.25;118633;1150;104937;-76
2021/01/11 01:14:33;;;;;;;;;;;;;;;3.73;65.54;100776.97;118552;1149;104620;-76
2021/01/11 01:16:58;;;;;;;;;;;;;;;3.74;65.51;100774.25;118584;1149;104578;-74
2021/01/11 01:19:24;;;;;;;611.02;207.00;;;;;;;3.70;66.25;100766.63;118617;1150;104588;-75
2021/01/11 01:21:50;;;;;;;563.27;150.70;;;;;;;3.65;65.41;100774.81;118532;1149;105365;-74
2021/01/11 01:24:15;;;;;;;614.90;200.87;;;;;;;3.59;66.72;100764.64;118602;1150;104589;-77
2021/01/11 01:26:41;;;;;;;613.53;211.30;;;;;;;3.58;66.37;100759.45;118516;1149;104454;-76
2021/01/11 01:29:06;;;;;;;616.10;213.60;;;;;;;3.53;66.35;100757.95;118520;1150;104562;-77
2021/01/11 01:31:32;;;;;;;604.02;198.25;;;;;;;3.53;65.44;100765.87;118601;1149;104565;-77
2021/01/11 01:33:58;;;;;;;611.60;202.38;;;;;;;3.51;66.42;100765.13;118555;1150;104559;-77
2021/01/11 01:36:23;;;;;;;585.03;179.13;;;;;;;3.51;65.58;100766.92;118613;1150;104582;-74
2021/01/11 01:38:49;;;;;;;568.53;154.10;;;;;;;3.47;66.44;100765.42;118484;1150;104647;-75
2021/01/11 01:41:15;;;;;;;606.33;195.03;;;;;;;3.43;66.46;100761.28;118529;1150;104596;-74
2021/01/11 01:43:40;;;;;;;609.10;199.17;;;;;;;3.45;65.89;100757.59;118570;1150;104649;-73
2021/01/11 01:46:11;;;;;;;607.02;196.37;;;;;;;3.45;66.38;100762.87;118572;1150;104636;-76
2021/01/11 01:48:37;;;;;;;609.50;191.60;;;;;;;3.44;65.85;100753.25;118626;1149;104882;-78
2021/01/11 01:51:03;;;;;;;610.00;193.10;;;;;;;3.41;65.84;100747.34;118561;1149;104975;-75
2021/01/11 01:53:28;;;;;;;566.00;166.00;;;;;;;3.36;65.76;100747.61;118563;1150;104607;-75
2021/01/11 01:55:55;;;;;;;600.10;183.30;;;;;;;3.33;65.73;100747.81;118544;1150;104682;-74
2021/01/11 01:58:21;;;;;;;609.85;189.85;;;;;;;3.30;65.84;100753.27;118536;1150;105243;-76
2021/01/11 02:00:48;;;;;;;;;;;;;;;3.27;66.16;100750.80;118548;1149;105178;-74
2021/01/11 02:03:13;;;;;;;;;;;;;;;3.24;65.59;100751.01;118618;1149;105007;-77
2021/01/11 02:05:39;;;;;;;601.20;193.50;;;;;;;3.21;66.58;100741.47;118516;1149;104816;-77
2021/01/11 02:08:21;;;;;;;563.42;144.53;;;;;;;3.19;66.90;100739.88;118645;1150;104497;-77
2021/01/11 02:11:10;;;;;;;;;;;;;;;3.15;66.12;100744.49;118555;1150;104929;-75
2021/01/11 02:13:55;;;;;;;;;;;;;;;3.10;65.72;100742.14;118599;1149;105073;-77
2021/01/11 02:16:39;;;;;;;;;;;;;;;3.14;65.96;100741.02;118570;1149;105090;-76
2021/01/11 02:19:10;;;;;;;;;;;;;;;3.14;65.75;100735.73;118561;1149;105119;-77
2021/01/11 02:22:10;;;;;;;608.10;188.20;;;;;;;3.17;66.14;100733.86;118500;1150;104878;-77
2021/01/11 02:25:16;;;;;;;565.80;143.40;;;;;;;3.17;65.83;100736.49;118557;1150;104591;-77
2021/01/11 02:27:42;;;;;;;;;;;;;;;3.20;66.76;100726.61;118621;1150;104704;-77
2021/01/11 02:30:33;;;;;;;609.20;186.80;;;;;;;3.19;66.54;100731.97;118627;1149;104815;-77
2021/01/11 02:32:59;;;;;;;;;;;;;;;3.12;65.72;100729.72;118504;1149;104877;-76
2021/01/11 02:35:27;;;;;;;608.58;194.02;;;;;;;3.07;65.82;100721.23;118528;1149;104480;-76
2021/01/11 02:37:53;;;;;;;598.00;169.20;;;;;;;3.06;66.20;100732.73;118585;1150;104876;-76
2021/01/11 02:40:19;;;;;;;616.70;177.60;;;;;;;3.04;66.46;100731.98;118612;1150;104470;-75
2021/01/11 02:42:44;;;;;;;627.08;210.63;;;;;;;3.09;66.68;100723.78;118564;1150;104577;-75
2021/01/11 02:45:11;;;;;;;610.60;197.63;;;;;;;3.15;65.96;100724.23;118573;1149;104636;-75
2021/01/11 02:48:02;;;;;;;620.13;206.27;;;;;;;3.24;65.60;100724.64;118620;1150;104661;-75
2021/01/11 02:50:29;;;;;;;;;;;;;;;3.28;65.68;100720.86;118555;1149;104649;-75
2021/01/11 02:53:13;;;;;;;;;;;;;;;3.26;65.23;100722.75;118535;1149;104637;-75
2021/01/11 02:55:49;;;;;;;572.00;148.20;;;;;;;3.24;65.97;100727.27;118503;1149;104927;-75
2021/01/11 02:58:14;;;;;;;;;;;;;;;3.27;66.55;100711.23;118644;1149;104511;-75
2021/01/11 03:00:41;;;;;;;;;;;;;;;3.30;65.83;100717.18;118549;1149;104759;-76
2021/01/11 03:03:08;;;;;;;;;;;;;;;3.32;66.70;100704.74;118590;1149;105081;-75
2021/01/11 03:05:35;;;;;;;;;;;;;;;3.38;66.33;100708.79;118551;1150;104591;-75
2021/01/11 03:08:00;;;;;;;;;;;;;;;3.40;66.53;100703.42;118561;1149;104556;-74
2021/01/11 03:10:26;;;;;;;565.30;147.80;;;;;;;3.37;65.46;100693.92;118627;1150;104992;-75
2021/01/11 03:12:51;;;;;;;;;;;;;;;3.34;65.45;100694.94;118578;1149;104660;-77
2021/01/11 03:15:17;;;;;;;;;;;;;;;3.33;66.46;100695.90;118554;1149;104466;-77
2021/01/11 03:17:43;;;;;;;;;;;;;;;3.34;66.32;100696.73;118655;1149;104508;-77
2021/01/11 03:20:12;;;;;;;;;;;;;;;3.34;65.78;100681.75;118611;1150;104841;-77
2021/01/11 03:22:38;;;;;;;;;;;;;;;3.36;66.92;100688.73;118580;1149;104954;-77
2021/01/11 03:25:05;;;;;;;;;;;;;;;3.37;66.55;100688.65;118649;1149;104556;-77
2021/01/11 03:27:30;;;;;;;;;;;;;;;3.38;66.58;100692.96;118573;1149;104550;-77
2021/01/11 03:29:56;;;;;;;;;;;;;;;3.39;66.44;100689.39;118641;1150;105586;-78
2021/01/11 03:32:22;;;;;;;;;;;;;;;3.39;66.32;100678.84;118544;1150;104521;-77
2021/01/11 03:34:47;;;;;;;;;;;;;;;3.36;65.98;100684.30;118615;1149;104574;-77
2021/01/11 03:37:13;;;;;;;;;;;;;;;3.35;66.50;100679.98;118525;1149;104477;-77
2021/01/11 03:39:38;;;;;;;;;;;;;;;3.32;66.48;100688.08;118530;1150;104569;-76
2021/01/11 03:42:04;;;;;;;;;;;;;;;3.27;66.92;100690.14;118663;1149;104620;-74
2021/01/11 03:44:29;;;;;;;;;;;;;;;3.22;66.30;100692.23;118646;1149;104487;-74
2021/01/11 03:46:55;;;;;;;;;;;;;;;3.22;66.33;100690.44;118642;1150;104487;-74
2021/01/11 03:49:21;;;;;;;;;;;;;;;3.25;66.18;100690.27;118559;1149;104486;-75
2021/01/11 03:51:46;;;;;;;;;;;;;;;3.27;66.98;100679.59;118574;1150;104547;-72
2021/01/11 03:54:11;;;;;;;;;;;;;;;3.28;66.14;100686.58;118625;1150;104594;-74
2021/01/11 03:56:37;;;;;;;;;;;;;;;3.31;66.82;100675.81;118553;1150;104503;-73
2021/01/11 03:59:02;;;;;;;;;;;;;;;3.27;66.17;100685.73;118713;1150;104582;-73
2021/01/11 04:01:28;;;;;;;;;;;;;;;3.28;66.68;100681.30;118558;1149;104496;-73
2021/01/11 04:03:54;;;;;;;;;;;;;;;3.29;66.60;100677.70;118648;1150;104816;-74
2021/01/11 04:06:20;;;;;;;;;;;;;;;3.32;66.57;100677.52;118876;1150;104579;-74
2021/01/11 04:08:46;;;;;;;;;;;;;;;3.33;66.56;100677.44;118759;1151;104887;-74
2021/01/11 04:11:12;;;;;;;;;;;;;;;3.37;66.96;100669.31;118682;1150;104498;-73
2021/01/11 04:13:39;;;;;;;;;;;;;;;3.38;65.82;100669.22;118780;1149;104487;-77
2021/01/11 04:16:05;;;;;;;;;;;;;;;3.34;65.57;100670.36;118547;1150;104553;-75
2021/01/11 04:18:30;;;;;;;;;;;;;;;3.31;66.56;100659.99;118663;1149;104493;-76
2021/01/11 04:20:56;;;;;;;;;;;;;;;3.30;65.68;100659.16;118675;1149;104482;-76
2021/01/11 04:23:21;;;;;;;;;;;;;;;3.28;65.26;100660.20;118597;1150;104951;-77
2021/01/11 04:25:47;;;;;;;;;;;;;;;3.24;65.61;100654.27;118666;1150;105953;-76
2021/01/11 04:28:12;;;;;;;;;;;;;;;3.20;65.43;100646.66;118572;1151;104871;-75
2021/01/11 04:30:38;;;;;;;;;;;;;;;3.17;66.62;100652.95;118565;1148;104593;-76
2021/01/11 04:33:04;;;;;;;587.30;172.40;;;;;;;3.09;65.05;100648.16;118606;1149;104543;-75
2021/01/11 04:35:30;;;;;;;591.50;177.20;;;;;;;3.03;66.24;100653.81;118521;1151;104497;-74
2021/01/11 04:37:57;;;;;;;582.10;160.57;;;;;;;2.98;66.37;100652.41;118513;1149;104692;-75
2021/01/11 04:40:23;;;;;;;593.10;171.53;;;;;;;2.93;66.65;100650.06;118621;1149;104569;-75
2021/01/11 04:43:03;;;;;;;589.10;168.57;;;;;;;2.88;66.14;100650.33;118525;1151;104697;-73
2021/01/11 04:45:29;;;;;;;593.67;172.72;;;;;;;2.81;66.14;100651.66;118548;1150;104582;-73
2021/01/11 04:48:01;;;;;;;580.70;160.10;;;;;;;2.76;66.26;100645.81;118527;1149;104561;-75
2021/01/11 04:50:28;;;;;;;567.50;151.60;;;;;;;2.71;65.79;100656.65;118498;1150;104471;-74
2021/01/11 04:52:54;;;;;;;577.30;156.43;;;;;;;2.66;65.76;100653.43;118543;1150;104828;-75
2021/01/11 04:55:21;;;;;;;567.83;146.28;;;;;;;2.60;65.87;100645.91;118605;1149;104470;-76
2021/01/11 04:57:58;;;;;;;577.83;147.77;;;;;;;2.55;66.44;100646.16;118560;1149;104487;-73
2021/01/11 05:00:27;;;;;;;584.13;163.07;;;;;;;2.50;65.45;100639.47;118535;1150;104482;-73
2021/01/11 05:02:59;;;;;;;588.30;156.40;;;;;;;2.44;66.48;100631.95;118513;1150;104812;-73
2021/01/11 05:05:27;;;;;;;567.70;141.55;;;;;;;2.38;65.06;100632.31;118599;1148;104766;-71
2021/01/11 05:07:53;;;;;;;;;;;;;;;2.34;66.18;100634.28;118522;1149;104487;-75
2021/01/11 05:10:27;;;;;;;558.43;140.20;;;;;;;2.32;65.67;100633.52;118519;1151;104548;-74
2021/01/11 05:12:56;;;;;;;595.40;173.80;;;;;;;2.29;64.73;100631.93;118503;1150;104486;-71
2021/01/11 05:15:24;;;;;;;556.05;131.60;;;;;;;2.30;65.53;100638.03;118433;1149;104530;-73
2021/01/11 05:17:49;;;;;;;592.90;166.70;;;;;;;2.28;65.50;100635.48;118509;1149;104575;-73
2021/01/11 05:20:20;;;;;;;561.80;136.15;;;;;;;2.24;64.73;100636.61;118542;1149;104536;-73
2021/01/11 05:22:49;;;;;;;615.27;188.57;;;;;;;2.19;65.25;100629.92;118617;1150;104544;-71
2021/01/11 05:25:20;;;;;;;591.58;163.47;;;;;;;2.15;65.45;100634.52;118569;1149;104612;-72
2021/01/11 05:28:02;;;;;;;596.25;175.25;;;;;;;2.09;64.66;100630.45;118546;1150;104675;-71
2021/01/11 05:30:33;;;;;;;594.67;172.50;;;;;;;2.05;64.83;100630.73;118464;1150;104501;-70
2021/01/11 05:32:58;;;;;;;602.23;175.57;;;;;;;2.05;65.80;100639.47;118491;1149;104550;-74
2021/01/11 05:35:25;;;;;;;592.33;166.10;;;;;;;2.01;64.91;100631.85;118547;1150;104583;-73
2021/01/11 05:37:54;;;;;;;594.23;167.03;;;;;;;1.99;65.30;100637.20;118530;1150;104463;-73
2021/01/11 05:40:24;;;;;;;590.88;164.57;;;;;;;1.96;64.84;100635.60;118557;1150;104625;-73
2021/01/11 05:42:57;;;;;;;574.17;153.03;;;;;;;1.94;64.36;100640.11;118549;1150;104588;-73
2021/01/11 05:45:28;;;;;;;587.57;162.17;;;;;;;1.91;65.53;100640.27;118569;1149;104578;-73
2021/01/11 05:48:21;;;;;;;548.30;127.23;;;;;;;1.90;65.66;100646.45;118523;1150;104921;-73
2021/01/11 05:50:49;;;;;;;587.93;156.73;;;;;;;1.89;65.26;100644.77;118575;1151;104588;-73
2021/01/11 05:53:23;;;;;;;575.62;144.32;;;;;;;1.86;65.57;100647.56;118539;1149;104450;-74
2021/01/11 05:55:50;;;;;;;599.42;168.15;;;;;;;1.82;64.66;100648.69;118543;1149;104592;-74
2021/01/11 05:58:20;;;;;;;586.80;157.33;;;;;;;1.78;65.54;100649.80;118518;1151;104481;-73
2021/01/11 06:00:46;;;;;;;588.60;157.80;;;;;;;1.76;65.38;100656.93;118564;1150;104556;-75
2021/01/11 06:03:13;;;;;;;593.73;155.20;;;;;;;1.72;65.49;100658.05;118493;1149;104590;-76
2021/01/11 06:05:41;;;;;;;583.40;153.55;;;;;;;1.67;65.32;100662.70;118550;1149;104847;-76
2021/01/11 06:08:09;;;;;;;593.10;161.70;;;;;;;1.65;65.18;100664.58;118530;1150;104825;-74
2021/01/11 06:10:35;;;;;;;558.77;131.95;;;;;;;1.57;64.91;100672.89;118509;1151;104743;-76
2021/01/11 06:13:05;;;;;;;643.60;189.90;;;;;;;1.50;64.71;100666.27;118636;1151;104647;-74
2021/01/11 06:15:33;;;;;;;608.00;158.97;;;;;;;1.44;65.16;100664.82;118497;1149;104582;-76
2021/01/11 06:17:59;;;;;;;609.93;171.50;;;;;;;1.42;65.51;100664.06;118589;1151;104633;-74
2021/01/11 06:20:27;;;;;;;593.87;159.90;;;;;;;1.39;65.10;100664.25;118508;1150;104511;-73
2021/01/11 06:22:54;;;;;;;597.80;163.20;;;;;;;1.40;65.42;100667.72;118612;1150;104482;-73
2021/01/11 06:25:19;;;;;;;595.85;161.55;;;;;;;1.38;64.75;100667.80;118525;1150;104514;-74
2021/01/11 06:28:12;;;;;;;592.63;163.27;;;;;;;1.39;65.68;100666.88;118597;1150;104958;-73
2021/01/11 06:30:41;;;;;;;590.23;153.47;;;;;;;1.35;65.04;100673.23;118565;1149;104482;-76
2021/01/11 06:33:08;;;;;;;549.90;125.60;;;;;;;1.32;64.73;100671.61;118620;1150;104580;-73
2021/01/11 06:35:36;;;;;;;588.63;154.37;;;;;;;1.32;64.47;100668.13;118490;1149;104665;-74
2021/01/11 06:38:17;;;;;;;561.23;128.80;;;;;;;1.28;64.45;100663.98;118539;1149;104735;-74
2021/01/11 06:40:45;;;;;;;586.50;147.67;;;;;;;1.24;64.54;100665.92;118691;1149;104924;-73
2021/01/11 06:43:13;;;;;;;595.80;161.03;;;;;;;1.22;65.25;100662.53;118598;1150;104631;-73
2021/01/11 06:45:41;;;;;;;587.15;158.47;;;;;;;1.24;65.22;100660.66;118712;1149;104671;-74
2021/01/11 06:48:12;;;;;;;589.80;157.40;;;;;;;1.22;64.51;100665.16;118557;1150;104698;-74
2021/01/11 06:50:38;;;;;;;550.15;126.80;;;;;;;1.22;64.94;100659.06;118550;1151;104547;-74
2021/01/11 06:53:04;;;;;;;586.50;152.33;;;;;;;1.23;64.87;100669.47;118530;1150;104690;-74
2021/01/11 06:55:31;;;;;;;554.73;124.40;;;;;;;1.22;64.51;100667.79;118489;1150;104524;-74
2021/01/11 06:58:01;;;;;;;586.00;152.65;;;;;;;1.25;64.44;100661.51;118618;1150;104560;-74
2021/01/11 07:00:34;;;;;;;570.00;137.07;;;;;;;1.25;64.85;100667.63;118632;1149;104686;-74
2021/01/11 07:03:00;;;;;;;;;;;;;;;1.26;64.67;100669.31;118575;1150;105501;-75
2021/01/11 07:05:38;;;;;;;579.77;141.10;;;;;;;1.27;64.41;100670.16;118538;1150;104669;-75
2021/01/11 07:08:09;;;;;;;583.43;148.07;;;;;;;1.26;65.13;100668.47;118432;1150;104464;-74
2021/01/11 07:10:37;;;;;;;580.50;145.47;;;;;;;1.28;64.46;100675.34;118521;1150;104595;-75
2021/01/11 07:13:18;;;;;;;567.07;139.50;;;;;;;1.30;64.36;100677.89;118566;1150;104481;-73
2021/01/11 07:15:53;;;;;;;585.40;154.25;;;;;;;1.34;65.07;100685.52;118509;1151;104570;-74
2021/01/11 07:18:37;;;;;;;548.30;123.42;;;;;;;1.37;64.42;100679.27;118474;1150;104572;-75
2021/01/11 07:21:19;;;;;;;587.50;154.30;;;;;;;1.38;64.39;100678.31;118495;1149;104594;-74
2021/01/11 07:23:45;;;;;;;585.40;149.10;;;;;;;1.41;64.90;100682.58;118498;1150;104618;-75
2021/01/11 07:26:17;;;;;;;621.00;180.43;;;;;;;1.41;64.40;100683.41;118557;1150;104471;-74
2021/01/11 07:28:57;;;;;;;587.05;150.90;;;;;;;1.42;64.30;100676.37;118580;1150;104646;-75
2021/01/11 07:31:29;;;;;;;580.25;147.20;;;;;;;1.38;64.25;100670.42;118612;1151;104655;-74
2021/01/11 07:34:24;;;;;;;610.02;174.50;;;;;;;1.34;64.92;100671.52;118536;1150;104556;-75
2021/01/11 07:36:52;;;;;;;576.47;141.00;;;;;;;1.36;64.67;100675.76;118477;1150;104647;-75
2021/01/11 07:39:25;;;;;;;614.63;178.93;;;;;;;1.35;65.06;100681.13;118487;1149;104483;-75
2021/01/11 07:41:55;;;;;;;597.15;161.37;;;;;;;1.33;65.53;100685.63;118553;1150;104563;-74
2021/01/11 07:44:24;;;;;;;589.37;151.27;;;;;;;1.31;64.98;100684.83;118553;1149;104588;-75
2021/01/11 07:47:01;;;;;;;586.62;152.38;;;;;;;1.36;65.76;100683.65;118533;1150;104516;-75
2021/01/11 07:49:29;;;;;;;587.50;157.40;;;;;;;1.41;65.91;100683.41;118476;1151;104513;-75
2021/01/11 07:52:05;;;;;;;595.85;163.52;;;;;;;1.47;66.00;100690.96;118509;1149;104871;-75
2021/01/11 07:54:31;;;;;;;553.07;130.70;;;;;;;1.49;65.43;100683.83;118495;1150;104697;-74
2021/01/11 07:56:57;;;;;;;585.83;153.80;;;;;;;1.50;65.75;100682.92;118530;1150;104581;-75
2021/01/11 07:59:22;;;;;;;557.70;132.17;;;;;;;1.50;65.05;100682.05;118597;1150;104579;-75
2021/01/11 08:01:49;;;;;;;604.30;169.70;;;;;;;1.47;65.19;100684.86;118484;1149;104684;-74
2021/01/11 08:04:16;;;;;;;574.80;145.30;;;;;;;1.44;65.70;100687.65;118542;1150;104745;-74
2021/01/11 08:06:51;;;;;;;595.08;163.20;;;;;;;1.37;65.37;100681.89;118659;1149;104652;-75
2021/01/11 08:09:18;;;;;;;586.35;156.10;;;;;;;1.36;65.38;100682.80;118602;1149;104495;-75
2021/01/11 08:11:45;;;;;;;614.97;186.93;;;;;;;1.41;65.38;100682.58;118527;1151;104588;-75
2021/01/11 08:14:11;;;;;;;598.13;164.95;;;;;;;1.42;66.18;100686.89;118549;1150;104854;-75
2021/01/11 08:16:40;;;;;;;600.03;170.07;;;;;;;1.43;65.33;100683.34;118581;1149;104652;-74
2021/01/11 08:19:10;;;;;;;592.40;158.63;;;;;;;1.42;66.08;100684.25;118432;1149;104485;-74
2021/01/11 08:21:37;;;;;;;587.53;155.60;;;;;;;1.41;66.38;100688.67;118626;1150;104667;-74
2021/01/11 08:24:08;;;;;;;595.77;162.60;;;;;;;1.38;65.76;100688.83;118537;1150;104644;-74
2021/01/11 08:26:43;;;;;;;569.30;136.67;;;;;;;1.38;65.51;100687.04;118540;1151;104463;-74
2021/01/11 08:29:09;;;;;;;585.08;154.70;;;;;;;1.40;65.88;100686.96;118583;1149;104474;-74
2021/01/11 08:31:37;;;;;;;561.02;134.70;;;;;;;1.40;65.99;100689.59;118535;1149;104588;-75
2021/01/11 08:34:05;;;;;;;582.90;156.30;;;;;;;1.47;66.32;100688.33;118555;1150;104870;-74
2021/01/11 08:36:31;;;;;;;580.20;151.53;;;;;;;1.40;65.70;100688.75;118596;1150;104500;-74
2021/01/11 08:39:06;;;;;;;587.52;158.87;;;;;;;1.37;66.38;100681.89;118507;1150;104930;-74
2021/01/11 08:41:33;;;;;;;582.30;154.90;;;;;;;1.35;65.85;100681.97;118460;1150;104477;-74
2021/01/11 08:44:00;;;;;;;588.10;165.77;;;;;;;1.40;65.45;100686.12;118513;1150;104639;-74
2021/01/11 08:47:11;;;;;;;601.95;175.53;;;;;;;1.43;65.95;100685.97;118575;1150;104464;-75
2021/01/11 08:50:00;;;;;;;541.60;124.00;;;;;;;1.44;65.90;100685.86;118513;1149;104473;-74
2021/01/11 08:52:31;;;;;;;591.08;169.40;;;;;;;1.38;66.04;100683.56;118548;1149;104608;-75
2021/01/11 08:55:12;;;;;;;573.05;150.85;;;;;;;1.38;65.97;100686.20;118563;1149;104547;-75
2021/01/11 08:57:38;;;;;;;588.13;167.30;;;;;;;1.34;65.61;100684.67;118551;1149;104643;-74
2021/01/11 09:00:09;;;;;;;591.93;175.40;;;;;;;1.27;66.52;100680.67;118557;1150;104952;-74
2021/01/11 09:02:35;;;;;;;588.10;165.63;;;;;;;1.29;66.40;100689.32;118580;1149;104479;-74
2021/01/11 09:05:26;;;;;;;583.85;161.35;;;;;;;1.32;65.70;100687.38;118508;1150;104611;-75
2021/01/11 09:07:55;;;;;;;540.70;123.67;;;;;;;1.30;65.84;100683.14;118590;1150;104562;-75
2021/01/11 09:10:30;;;;;;;588.80;168.47;;;;;;;1.27;65.88;100691.19;118515;1149;104587;-75
2021/01/11 09:12:56;;;;;;;648.60;192.35;;;;;;;1.25;66.06;100688.66;118621;1150;104737;-74
2021/01/11 09:15:25;;;;;;;624.23;187.12;;;;;;;1.33;66.26;100681.20;118510;1150;104659;-74
2021/01/11 09:18:10;;;;;;;664.00;197.82;;;;;;;1.44;66.03;100693.75;118567;1150;104675;-75
2021/01/11 09:20:45;;;;;;;688.15;203.95;;;;;;;1.56;66.93;100684.36;118499;1151;104857;-75
2021/01/11 09:23:12;;;;;;;1035.43;340.07;;;;;;;1.61;66.01;100691.98;118437;1150;104554;-74
2021/01/11 09:25:41;;;;;;;1055.20;367.90;;;;;;;1.62;65.93;100683.14;118469;1150;104644;-75
2021/01/11 09:28:09;;;;;;;893.93;335.37;;;;;;;1.65;66.74;100680.36;118490;1150;104588;-75
2021/01/11 09:30:36;;;;;;;623.40;183.00;;;;;;;1.69;65.92;100689.77;118545;1149;104663;-75
2021/01/11 09:33:03;;;;;;;608.98;178.47;;;;;;;1.68;66.10;100678.41;118507;1150;104554;-75
2021/01/11 09:35:29;;;;;;;603.75;169.55;;;;;;;1.68;66.34;100680.20;118519;1150;104538;-75
2021/01/11 09:37:55;;;;;;;746.55;268.00;;;;;;;1.68;66.47;100680.20;118549;1150;104666;-75
2021/01/11 09:40:22;;;;;;;587.50;162.90;;;;;;;1.67;65.87;100683.75;118604;1149;104616;-75
2021/01/11 09:42:49;;;;;;;610.27;186.67;;;;;;;1.71;66.84;100680.01;118578;1149;104921;-74
2021/01/11 09:45:17;;;;;;;579.60;159.18;;;;;;;1.70;66.50;100675.70;118533;1150;104665;-74
2021/01/11 09:47:43;;;;;;;585.92;162.47;;;;;;;1.79;66.43;100669.05;118577;1149;104624;-75
2021/01/11 09:50:12;;;;;;;581.47;149.95;;;;;;;1.79;65.93;100675.19;118526;1150;104911;-74
2021/01/11 09:52:38;;;;;;;593.70;174.60;;;;;;;1.85;66.18;100672.20;118548;1149;104569;-74
2021/01/11 09:55:05;;;;;;;562.50;149.25;;;;;;;1.86;66.55;100663.36;118556;1148;104742;-74
2021/01/11 09:57:38;;;;;;;584.36;165.62;;;;;;;1.85;66.64;100666.94;118633;1149;104557;-74
2021/01/11 10:00:10;;;;;;;543.93;132.73;;;;;;;1.88;65.47;100664.11;118592;1149;104561;-75
2021/01/11 10:02:38;;;;;;;578.40;160.15;;;;;;;1.85;65.42;100659.05;118580;1149;104560;-74
2021/01/11 10:05:04;;;;;;;575.60;159.27;;;;;;;1.89;65.65;100665.83;118533;1149;104622;-75
2021/01/11 10:07:30;;;;;;;589.80;171.13;;;;;;;1.93;65.75;100664.71;118560;1150;104627;-75
2021/01/11 10:09:55;;;;;;;563.73;150.67;;;;;;;1.93;66.31;100658.61;118603;1150;104647;-75
2021/01/11 10:12:21;;;;;;;568.65;152.50;;;;;;;1.88;66.33;100660.64;118513;1150;104947;-75
2021/01/11 10:14:46;;;;;;;573.90;157.47;;;;;;;1.89;66.42;100667.62;118581;1150;104871;-75
2021/01/11 10:17:12;;;;;;;566.30;151.20;;;;;;;1.88;66.48;100661.48;118571;1150;104678;-75
2021/01/11 10:19:38;;;;;;;546.77;137.80;;;;;;;1.88;66.24;100661.48;118512;1150;104470;-76
2021/01/11 10:22:04;;;;;;;566.55;149.90;;;;;;;1.87;66.38;100662.44;118601;1150;104468;-75
2021/01/11 10:24:29;;;;;;;539.40;131.75;;;;;;;1.92;66.22;100652.47;118502;1151;104633;-75
2021/01/11 10:26:56;;;;;;;557.90;141.70;;;;;;;2.04;66.44;100660.61;118566;1149;104551;-76
2021/01/11 10:29:24;;;;;;;533.67;130.87;;;;;;;2.06;65.17;100651.70;118711;1150;104653;-76
2021/01/11 10:31:51;;;;;;;563.90;146.97;;;;;;;2.11;66.26;100652.27;118624;1150;104599;-75
2021/01/11 10:34:18;;;;;;;535.70;128.82;;;;;;;2.12;65.18;100653.14;118535;1150;104511;-76
2021/01/11 10:36:47;;;;;;;556.80;138.80;;;;;;;2.07;65.75;100660.44;118629;1150;104503;-76
2021/01/11 10:39:14;;;;;;;521.43;123.03;;;;;;;2.02;65.44;100657.22;118569;1150;104852;-75
2021/01/11 10:41:40;;;;;;;555.35;137.90;;;;;;;2.02;65.48;100654.59;118544;1150;105108;-76
2021/01/11 10:44:07;;;;;;;534.07;129.03;;;;;;;2.05;66.02;100654.42;118496;1149;104599;-76
2021/01/11 10:46:36;;;;;;;;;;;;;;;1.98;65.35;100646.02;118582;1149;104482;-76
2021/01/11 10:49:03;;;;;;;537.93;127.97;;;;;;;1.91;66.50;100642.91;118546;1149;104482;-75
2021/01/11 10:51:32;;;;;;;;;;;;;;;1.90;66.61;100646.45;118519;1149;104492;-77
2021/01/11 10:53:58;;;;;;;533.65;128.50;;;;;;;1.93;65.87;100648.92;118559;1150;105230;-76
2021/01/11 10:56:23;;;;;;;;;;;;;;;1.94;66.79;100640.11;118492;1150;104908;-75
2021/01/11 10:58:49;;;;;;;521.50;119.50;;;;;;;1.92;65.28;100636.69;118587;1149;104482;-75
2021/01/11 11:01:15;;;;;;;;;;;;;;;1.94;66.63;100639.23;118525;1150;104579;-75
2021/01/11 11:03:44;;;;;;;;;;;;;;;1.90;66.82;100628.03;118550;1149;104499;-75
2021/01/11 11:06:10;;;;;;;;;;;;;;;1.90;65.66;100629.83;118593;1149;104483;-75
2021/01/11 11:08:35;;;;;;;;;;;;;;;1.89;66.75;100626.35;118623;1150;104957;-76
2021/01/11 11:11:01;;;;;;;;;;;;;;;1.93;66.65;100622.61;118523;1150;104538;-76
2021/01/11 11:13:26;;;;;;;;;;;;;;;2.00;65.78;100630.14;118585;1150;104556;-75
2021/01/11 11:15:52;;;;;;;555.55;140.47;;;;;;;2.01;65.66;100623.95;118491;1149;105140;-75
2021/01/11 11:18:18;;;;;;;564.00;144.10;;;;;;;2.00;66.33;100617.81;118544;1151;104657;-76
2021/01/11 11:20:45;;;;;;;573.83;156.07;;;;;;;2.07;65.71;100613.06;118565;1149;104618;-76